sensor_id;sensor_type;location;lat;lon;timestamp;P1;durP1;ratioP1;P2;durP2;ratioP2
40022;SDS011;25713;-35.352;149.036;2022-12-07T00:01:54;0.70;;;0.40;;
40022;SDS011;25713;-35.352;149.036;2022-12-07T00:04:24;2.50;;;0.50;;
40022;SDS011;25713;-35.352;149.036;2022-12-07T00:06:56;1.00;;;0.55;;
40022;SDS011;25713;-35.352;149.036;2022-12-07T00:11:54;5.53;;;0.55;;
40022;SDS011;25713;-35.352;149.036;2022-12-07T00:14:23;1.25;;;0.43;;
40022;SDS011;25713;-35.352;149.036;2022-12-07T00:16:52;1.13;;;0.40;;
40022;SDS011;25713;-35.352;149.036;2022-12-07T00:19:22;1.75;;;0.47;;
40022;SDS011;25713;-35.352;149.036;2022-12-07T00:21:51;2.00;;;0.52;;
40022;SDS011;25713;-35.352;149.036;2022-12-07T00:24:24;1.98;;;0.50;;
40022;SDS011;25713;-35.352;149.036;2022-12-07T00:26:53;1.05;;;0.50;;
40022;SDS011;25713;-35.352;149.036;2022-12-07T00:29:23;1.67;;;0.47;;
40022;SDS011;25713;-35.352;149.036;2022-12-07T00:31:52;0.75;;;0.47;;
40022;SDS011;25713;-35.352;149.036;2022-12-07T00:34:22;1.38;;;0.40;;
40022;SDS011;25713;-35.352;149.036;2022-12-07T00:36:51;1.48;;;0.40;;
40022;SDS011;25713;-35.352;149.036;2022-12-07T00:39:22;1.23;;;0.40;;
40022;SDS011;25713;-35.352;149.036;2022-12-07T00:41:52;0.98;;;0.40;;
40022;SDS011;25713;-35.352;149.036;2022-12-07T00:44:21;1.75;;;0.50;;
40022;SDS011;25713;-35.352;149.036;2022-12-07T00:46:50;2.67;;;0.70;;
40022;SDS011;25713;-35.352;149.036;2022-12-07T00:49:20;1.58;;;0.40;;
40022;SDS011;25713;-35.352;149.036;2022-12-07T00:51:49;0.38;;;0.30;;
40022;SDS011;25713;-35.352;149.036;2022-12-07T00:54:18;2.40;;;0.50;;
40022;SDS011;25713;-35.352;149.036;2022-12-07T00:56:50;0.82;;;0.50;;
40022;SDS011;25713;-35.352;149.036;2022-12-07T00:59:19;4.72;;;0.60;;
40022;SDS011;25713;-35.352;149.036;2022-12-07T01:01:49;2.83;;;0.63;;
40022;SDS011;25713;-35.352;149.036;2022-12-07T01:04:18;1.13;;;0.43;;
40022;SDS011;25713;-35.352;149.036;2022-12-07T01:06:47;1.15;;;0.50;;
40022;SDS011;25713;-35.352;149.036;2022-12-07T01:09:17;0.77;;;0.43;;
40022;SDS011;25713;-35.352;149.036;2022-12-07T01:11:46;4.38;;;0.60;;
40022;SDS011;25713;-35.352;149.036;2022-12-07T01:14:17;1.48;;;0.40;;
40022;SDS011;25713;-35.352;149.036;2022-12-07T01:16:47;0.85;;;0.47;;
40022;SDS011;25713;-35.352;149.036;2022-12-07T01:19:16;1.83;;;0.57;;
40022;SDS011;25713;-35.352;149.036;2022-12-07T01:21:46;0.90;;;0.40;;
40022;SDS011;25713;-35.352;149.036;2022-12-07T01:24:15;0.98;;;0.50;;
40022;SDS011;25713;-35.352;149.036;2022-12-07T01:26:45;2.20;;;0.73;;
40022;SDS011;25713;-35.352;149.036;2022-12-07T01:29:18;3.92;;;0.63;;
40022;SDS011;25713;-35.352;149.036;2022-12-07T01:31:48;2.58;;;0.70;;
40022;SDS011;25713;-35.352;149.036;2022-12-07T01:34:18;2.53;;;0.60;;
40022;SDS011;25713;-35.352;149.036;2022-12-07T01:36:47;3.67;;;0.45;;
40022;SDS011;25713;-35.352;149.036;2022-12-07T01:39:17;0.55;;;0.40;;
40022;SDS011;25713;-35.352;149.036;2022-12-07T01:41:46;2.78;;;0.80;;
40022;SDS011;25713;-35.352;149.036;2022-12-07T01:44:19;1.70;;;0.57;;
40022;SDS011;25713;-35.352;149.036;2022-12-07T01:46:50;2.60;;;0.60;;
40022;SDS011;25713;-35.352;149.036;2022-12-07T01:49:26;0.88;;;0.45;;
40022;SDS011;25713;-35.352;149.036;2022-12-07T01:52:01;0.80;;;0.47;;
40022;SDS011;25713;-35.352;149.036;2022-12-07T01:54:37;2.30;;;0.60;;
40022;SDS011;25713;-35.352;149.036;2022-12-07T01:57:07;0.93;;;0.50;;
40022;SDS011;25713;-35.352;149.036;2022-12-07T01:59:41;2.05;;;0.68;;
40022;SDS011;25713;-35.352;149.036;2022-12-07T02:02:15;2.78;;;0.60;;
40022;SDS011;25713;-35.352;149.036;2022-12-07T02:04:47;4.47;;;0.60;;
40022;SDS011;25713;-35.352;149.036;2022-12-07T02:07:16;1.33;;;0.55;;
40022;SDS011;25713;-35.352;149.036;2022-12-07T02:09:46;2.53;;;0.50;;
40022;SDS011;25713;-35.352;149.036;2022-12-07T02:12:16;5.18;;;0.60;;
40022;SDS011;25713;-35.352;149.036;2022-12-07T02:14:48;2.35;;;0.60;;
40022;SDS011;25713;-35.352;149.036;2022-12-07T02:17:19;5.20;;;0.80;;
40022;SDS011;25713;-35.352;149.036;2022-12-07T02:20:06;2.22;;;0.68;;
40022;SDS011;25713;-35.352;149.036;2022-12-07T02:23:00;3.20;;;0.63;;
40022;SDS011;25713;-35.352;149.036;2022-12-07T02:29:16;1.48;;;0.55;;
40022;SDS011;25713;-35.352;149.036;2022-12-07T02:31:53;0.82;;;0.50;;
40022;SDS011;25713;-35.352;149.036;2022-12-07T02:34:30;2.88;;;0.70;;
40022;SDS011;25713;-35.352;149.036;2022-12-07T02:37:12;2.30;;;0.60;;
40022;SDS011;25713;-35.352;149.036;2022-12-07T02:39:47;3.33;;;0.70;;
40022;SDS011;25713;-35.352;149.036;2022-12-07T02:42:23;1.13;;;0.60;;
40022;SDS011;25713;-35.352;149.036;2022-12-07T02:44:58;1.75;;;0.57;;
40022;SDS011;25713;-35.352;149.036;2022-12-07T02:47:29;5.88;;;0.65;;
40022;SDS011;25713;-35.352;149.036;2022-12-07T02:50:02;2.88;;;1.02;;
40022;SDS011;25713;-35.352;149.036;2022-12-07T02:52:32;0.60;;;0.52;;
40022;SDS011;25713;-35.352;149.036;2022-12-07T02:55:02;1.55;;;0.63;;
40022;SDS011;25713;-35.352;149.036;2022-12-07T02:57:48;1.20;;;0.60;;
40022;SDS011;25713;-35.352;149.036;2022-12-07T03:00:37;1.05;;;0.50;;
40022;SDS011;25713;-35.352;149.036;2022-12-07T03:03:10;1.95;;;0.57;;
40022;SDS011;25713;-35.352;149.036;2022-12-07T03:05:48;3.53;;;0.60;;
40022;SDS011;25713;-35.352;149.036;2022-12-07T03:08:28;3.70;;;0.60;;
40022;SDS011;25713;-35.352;149.036;2022-12-07T03:11:03;0.88;;;0.57;;
40022;SDS011;25713;-35.352;149.036;2022-12-07T03:13:35;1.60;;;0.50;;
40022;SDS011;25713;-35.352;149.036;2022-12-07T03:16:11;1.05;;;0.63;;
40022;SDS011;25713;-35.352;149.036;2022-12-07T03:18:45;1.00;;;0.40;;
40022;SDS011;25713;-35.352;149.036;2022-12-07T03:21:19;1.27;;;0.60;;
40022;SDS011;25713;-35.352;149.036;2022-12-07T03:23:51;3.35;;;0.50;;
40022;SDS011;25713;-35.352;149.036;2022-12-07T03:26:26;3.88;;;0.60;;
40022;SDS011;25713;-35.352;149.036;2022-12-07T03:29:02;5.38;;;1.45;;
40022;SDS011;25713;-35.352;149.036;2022-12-07T03:31:39;2.95;;;0.60;;
40022;SDS011;25713;-35.352;149.036;2022-12-07T03:34:14;3.83;;;0.77;;
40022;SDS011;25713;-35.352;149.036;2022-12-07T03:36:47;2.60;;;0.52;;
40022;SDS011;25713;-35.352;149.036;2022-12-07T03:39:23;1.67;;;0.63;;
40022;SDS011;25713;-35.352;149.036;2022-12-07T03:41:56;1.20;;;0.57;;
40022;SDS011;25713;-35.352;149.036;2022-12-07T03:44:26;1.08;;;0.60;;
40022;SDS011;25713;-35.352;149.036;2022-12-07T03:47:00;0.93;;;0.40;;
40022;SDS011;25713;-35.352;149.036;2022-12-07T03:49:35;2.72;;;0.60;;
40022;SDS011;25713;-35.352;149.036;2022-12-07T03:52:12;4.22;;;0.60;;
40022;SDS011;25713;-35.352;149.036;2022-12-07T03:54:51;3.92;;;0.80;;
40022;SDS011;25713;-35.352;149.036;2022-12-07T03:57:25;1.40;;;0.57;;
40022;SDS011;25713;-35.352;149.036;2022-12-07T03:59:56;3.85;;;0.75;;
40022;SDS011;25713;-35.352;149.036;2022-12-07T04:02:28;2.20;;;0.70;;
40022;SDS011;25713;-35.352;149.036;2022-12-07T04:04:58;2.30;;;0.47;;
40022;SDS011;25713;-35.352;149.036;2022-12-07T04:07:27;1.00;;;0.40;;
40022;SDS011;25713;-35.352;149.036;2022-12-07T04:09:57;1.73;;;0.50;;
40022;SDS011;25713;-35.352;149.036;2022-12-07T04:12:26;3.15;;;0.60;;
40022;SDS011;25713;-35.352;149.036;2022-12-07T04:14:55;1.85;;;0.50;;
40022;SDS011;25713;-35.352;149.036;2022-12-07T04:17:25;1.75;;;0.65;;
40022;SDS011;25713;-35.352;149.036;2022-12-07T04:19:56;7.40;;;0.67;;
40022;SDS011;25713;-35.352;149.036;2022-12-07T04:22:26;2.05;;;0.60;;
40022;SDS011;25713;-35.352;149.036;2022-12-07T04:24:55;3.00;;;0.80;;
40022;SDS011;25713;-35.352;149.036;2022-12-07T04:27:25;2.25;;;0.60;;
40022;SDS011;25713;-35.352;149.036;2022-12-07T04:29:54;2.33;;;0.52;;
40022;SDS011;25713;-35.352;149.036;2022-12-07T04:32:23;2.38;;;0.50;;
40022;SDS011;25713;-35.352;149.036;2022-12-07T04:34:55;3.50;;;0.68;;
40022;SDS011;25713;-35.352;149.036;2022-12-07T04:37:24;4.55;;;0.73;;
40022;SDS011;25713;-35.352;149.036;2022-12-07T04:39:54;0.80;;;0.52;;
40022;SDS011;25713;-35.352;149.036;2022-12-07T04:42:23;3.53;;;0.75;;
40022;SDS011;25713;-35.352;149.036;2022-12-07T04:44:53;6.50;;;0.90;;
40022;SDS011;25713;-35.352;149.036;2022-12-07T04:47:22;0.88;;;0.57;;
40022;SDS011;25713;-35.352;149.036;2022-12-07T04:49:52;2.85;;;0.68;;
40022;SDS011;25713;-35.352;149.036;2022-12-07T04:52:23;1.10;;;0.60;;
40022;SDS011;25713;-35.352;149.036;2022-12-07T04:54:52;1.70;;;0.55;;
40022;SDS011;25713;-35.352;149.036;2022-12-07T04:57:22;2.08;;;0.60;;
40022;SDS011;25713;-35.352;149.036;2022-12-07T04:59:51;1.83;;;0.70;;
40022;SDS011;25713;-35.352;149.036;2022-12-07T05:02:21;2.88;;;0.73;;
40022;SDS011;25713;-35.352;149.036;2022-12-07T05:04:50;1.17;;;0.40;;
40022;SDS011;25713;-35.352;149.036;2022-12-07T05:07:22;2.65;;;0.60;;
40022;SDS011;25713;-35.352;149.036;2022-12-07T05:09:51;2.70;;;0.50;;
40022;SDS011;25713;-35.352;149.036;2022-12-07T05:12:20;1.80;;;0.75;;
40022;SDS011;25713;-35.352;149.036;2022-12-07T05:14:50;1.88;;;0.50;;
40022;SDS011;25713;-35.352;149.036;2022-12-07T05:17:19;6.47;;;0.95;;
40022;SDS011;25713;-35.352;149.036;2022-12-07T05:19:49;3.70;;;0.50;;
40022;SDS011;25713;-35.352;149.036;2022-12-07T05:22:18;2.22;;;0.60;;
40022;SDS011;25713;-35.352;149.036;2022-12-07T05:24:49;3.80;;;0.75;;
40022;SDS011;25713;-35.352;149.036;2022-12-07T05:27:19;3.20;;;0.65;;
40022;SDS011;25713;-35.352;149.036;2022-12-07T05:29:49;3.97;;;0.90;;
40022;SDS011;25713;-35.352;149.036;2022-12-07T05:32:19;1.70;;;0.40;;
40022;SDS011;25713;-35.352;149.036;2022-12-07T05:34:48;3.28;;;0.55;;
40022;SDS011;25713;-35.352;149.036;2022-12-07T05:37:18;3.03;;;0.65;;
40022;SDS011;25713;-35.352;149.036;2022-12-07T05:39:49;3.53;;;0.70;;
40022;SDS011;25713;-35.352;149.036;2022-12-07T05:42:19;4.60;;;1.08;;
40022;SDS011;25713;-35.352;149.036;2022-12-07T05:44:48;1.42;;;0.57;;
40022;SDS011;25713;-35.352;149.036;2022-12-07T05:47:18;2.08;;;0.63;;
40022;SDS011;25713;-35.352;149.036;2022-12-07T05:49:47;4.38;;;0.80;;
40022;SDS011;25713;-35.352;149.036;2022-12-07T05:52:17;5.85;;;0.70;;
40022;SDS011;25713;-35.352;149.036;2022-12-07T05:54:49;3.63;;;0.60;;
40022;SDS011;25713;-35.352;149.036;2022-12-07T05:57:18;4.60;;;0.50;;
40022;SDS011;25713;-35.352;149.036;2022-12-07T05:59:48;3.00;;;0.60;;
40022;SDS011;25713;-35.352;149.036;2022-12-07T06:02:17;2.95;;;0.40;;
40022;SDS011;25713;-35.352;149.036;2022-12-07T06:04:47;2.60;;;1.05;;
40022;SDS011;25713;-35.352;149.036;2022-12-07T06:07:16;2.90;;;0.68;;
40022;SDS011;25713;-35.352;149.036;2022-12-07T06:09:45;3.28;;;0.70;;
40022;SDS011;25713;-35.352;149.036;2022-12-07T06:12:17;5.60;;;0.52;;
40022;SDS011;25713;-35.352;149.036;2022-12-07T06:14:46;4.20;;;0.60;;
40022;SDS011;25713;-35.352;149.036;2022-12-07T06:17:16;1.65;;;0.50;;
40022;SDS011;25713;-35.352;149.036;2022-12-07T06:19:45;3.70;;;0.60;;
40022;SDS011;25713;-35.352;149.036;2022-12-07T06:22:15;3.33;;;0.70;;
40022;SDS011;25713;-35.352;149.036;2022-12-07T06:24:44;3.28;;;0.70;;
40022;SDS011;25713;-35.352;149.036;2022-12-07T06:27:16;3.90;;;0.70;;
40022;SDS011;25713;-35.352;149.036;2022-12-07T06:29:45;4.75;;;0.90;;
40022;SDS011;25713;-35.352;149.036;2022-12-07T06:32:15;1.73;;;0.50;;
40022;SDS011;25713;-35.352;149.036;2022-12-07T06:34:44;4.88;;;0.80;;
40022;SDS011;25713;-35.352;149.036;2022-12-07T06:37:14;7.00;;;0.90;;
40022;SDS011;25713;-35.352;149.036;2022-12-07T06:39:43;4.10;;;0.60;;
40022;SDS011;25713;-35.352;149.036;2022-12-07T06:42:12;3.58;;;0.57;;
40022;SDS011;25713;-35.352;149.036;2022-12-07T06:44:46;3.25;;;0.50;;
40022;SDS011;25713;-35.352;149.036;2022-12-07T06:47:16;2.03;;;0.68;;
40022;SDS011;25713;-35.352;149.036;2022-12-07T06:49:47;1.90;;;0.50;;
40022;SDS011;25713;-35.352;149.036;2022-12-07T06:52:16;5.15;;;0.80;;
40022;SDS011;25713;-35.352;149.036;2022-12-07T06:54:46;3.35;;;0.63;;
40022;SDS011;25713;-35.352;149.036;2022-12-07T06:57:18;1.35;;;0.50;;
40022;SDS011;25713;-35.352;149.036;2022-12-07T06:59:48;2.30;;;0.90;;
40022;SDS011;25713;-35.352;149.036;2022-12-07T07:02:17;1.80;;;0.50;;
40022;SDS011;25713;-35.352;149.036;2022-12-07T07:04:49;3.28;;;0.60;;
40022;SDS011;25713;-35.352;149.036;2022-12-07T07:07:19;1.92;;;0.55;;
40022;SDS011;25713;-35.352;149.036;2022-12-07T07:09:48;1.92;;;0.80;;
40022;SDS011;25713;-35.352;149.036;2022-12-07T07:12:20;4.03;;;0.70;;
40022;SDS011;25713;-35.352;149.036;2022-12-07T07:14:50;2.88;;;0.40;;
40022;SDS011;25713;-35.352;149.036;2022-12-07T07:17:20;0.95;;;0.57;;
40022;SDS011;25713;-35.352;149.036;2022-12-07T07:19:50;1.83;;;0.57;;
40022;SDS011;25713;-35.352;149.036;2022-12-07T07:22:22;3.10;;;0.77;;
40022;SDS011;25713;-35.352;149.036;2022-12-07T07:24:52;3.75;;;0.85;;
40022;SDS011;25713;-35.352;149.036;2022-12-07T07:27:24;5.78;;;0.60;;
40022;SDS011;25713;-35.352;149.036;2022-12-07T07:29:55;1.65;;;0.70;;
40022;SDS011;25713;-35.352;149.036;2022-12-07T07:32:24;2.72;;;0.47;;
40022;SDS011;25713;-35.352;149.036;2022-12-07T07:34:54;2.40;;;0.50;;
40022;SDS011;25713;-35.352;149.036;2022-12-07T07:37:25;2.65;;;0.50;;
40022;SDS011;25713;-35.352;149.036;2022-12-07T07:39:56;2.17;;;0.60;;
40022;SDS011;25713;-35.352;149.036;2022-12-07T07:42:32;1.30;;;0.50;;
40022;SDS011;25713;-35.352;149.036;2022-12-07T07:45:02;2.97;;;0.60;;
40022;SDS011;25713;-35.352;149.036;2022-12-07T07:47:33;2.53;;;0.68;;
40022;SDS011;25713;-35.352;149.036;2022-12-07T07:50:06;4.13;;;0.55;;
40022;SDS011;25713;-35.352;149.036;2022-12-07T07:52:38;1.75;;;0.60;;
40022;SDS011;25713;-35.352;149.036;2022-12-07T07:55:08;4.13;;;0.60;;
40022;SDS011;25713;-35.352;149.036;2022-12-07T07:57:40;1.88;;;0.50;;
40022;SDS011;25713;-35.352;149.036;2022-12-07T08:00:11;1.17;;;0.50;;
40022;SDS011;25713;-35.352;149.036;2022-12-07T08:02:42;3.97;;;0.50;;
40022;SDS011;25713;-35.352;149.036;2022-12-07T08:05:13;3.85;;;0.50;;
40022;SDS011;25713;-35.352;149.036;2022-12-07T08:07:43;2.45;;;0.50;;
40022;SDS011;25713;-35.352;149.036;2022-12-07T08:10:14;2.08;;;0.40;;
40022;SDS011;25713;-35.352;149.036;2022-12-07T08:12:48;4.13;;;0.80;;
40022;SDS011;25713;-35.352;149.036;2022-12-07T08:15:21;4.22;;;0.40;;
40022;SDS011;25713;-35.352;149.036;2022-12-07T08:17:50;2.63;;;0.40;;
40022;SDS011;25713;-35.352;149.036;2022-12-07T08:20:21;2.25;;;0.50;;
40022;SDS011;25713;-35.352;149.036;2022-12-07T08:22:54;3.35;;;0.70;;
40022;SDS011;25713;-35.352;149.036;2022-12-07T08:25:24;1.85;;;0.43;;
40022;SDS011;25713;-35.352;149.036;2022-12-07T08:27:56;2.03;;;0.43;;
40022;SDS011;25713;-35.352;149.036;2022-12-07T08:30:26;3.72;;;1.10;;
40022;SDS011;25713;-35.352;149.036;2022-12-07T08:32:59;8.95;;;0.55;;
40022;SDS011;25713;-35.352;149.036;2022-12-07T08:37:57;1.48;;;0.50;;
40022;SDS011;25713;-35.352;149.036;2022-12-07T08:40:27;2.63;;;1.00;;
40022;SDS011;25713;-35.352;149.036;2022-12-07T08:43:00;3.70;;;0.75;;
40022;SDS011;25713;-35.352;149.036;2022-12-07T08:45:30;6.47;;;0.60;;
40022;SDS011;25713;-35.352;149.036;2022-12-07T08:48:01;4.53;;;0.50;;
40022;SDS011;25713;-35.352;149.036;2022-12-07T08:50:36;2.47;;;0.63;;
40022;SDS011;25713;-35.352;149.036;2022-12-07T08:55:36;1.90;;;0.40;;
40022;SDS011;25713;-35.352;149.036;2022-12-07T08:58:08;3.88;;;0.70;;
40022;SDS011;25713;-35.352;149.036;2022-12-07T09:00:39;2.83;;;0.52;;
40022;SDS011;25713;-35.352;149.036;2022-12-07T09:03:09;2.70;;;0.60;;
40022;SDS011;25713;-35.352;149.036;2022-12-07T09:05:39;3.60;;;0.47;;
40022;SDS011;25713;-35.352;149.036;2022-12-07T09:08:13;3.60;;;0.77;;
40022;SDS011;25713;-35.352;149.036;2022-12-07T09:10:45;5.68;;;0.65;;
40022;SDS011;25713;-35.352;149.036;2022-12-07T09:13:17;5.00;;;0.50;;
40022;SDS011;25713;-35.352;149.036;2022-12-07T09:15:53;4.15;;;0.55;;
40022;SDS011;25713;-35.352;149.036;2022-12-07T09:18:25;3.65;;;0.68;;
40022;SDS011;25713;-35.352;149.036;2022-12-07T09:20:57;8.88;;;0.60;;
40022;SDS011;25713;-35.352;149.036;2022-12-07T09:23:29;3.10;;;0.60;;
40022;SDS011;25713;-35.352;149.036;2022-12-07T09:26:09;1.73;;;0.52;;
40022;SDS011;25713;-35.352;149.036;2022-12-07T09:28:43;3.60;;;0.50;;
40022;SDS011;25713;-35.352;149.036;2022-12-07T09:31:14;3.53;;;0.43;;
40022;SDS011;25713;-35.352;149.036;2022-12-07T09:33:44;2.55;;;0.85;;
40022;SDS011;25713;-35.352;149.036;2022-12-07T09:36:15;2.70;;;0.70;;
40022;SDS011;25713;-35.352;149.036;2022-12-07T09:38:47;4.03;;;0.80;;
40022;SDS011;25713;-35.352;149.036;2022-12-07T09:41:17;3.97;;;0.55;;
40022;SDS011;25713;-35.352;149.036;2022-12-07T09:43:49;2.03;;;0.60;;
40022;SDS011;25713;-35.352;149.036;2022-12-07T09:46:21;2.03;;;0.35;;
40022;SDS011;25713;-35.352;149.036;2022-12-07T09:48:53;2.92;;;0.50;;
40022;SDS011;25713;-35.352;149.036;2022-12-07T09:51:22;1.83;;;0.50;;
40022;SDS011;25713;-35.352;149.036;2022-12-07T09:53:53;2.55;;;0.47;;
40022;SDS011;25713;-35.352;149.036;2022-12-07T09:56:24;5.85;;;0.77;;
40022;SDS011;25713;-35.352;149.036;2022-12-07T09:58:59;5.95;;;0.80;;
40022;SDS011;25713;-35.352;149.036;2022-12-07T10:01:30;5.57;;;0.85;;
40022;SDS011;25713;-35.352;149.036;2022-12-07T10:04:02;0.73;;;0.40;;
40022;SDS011;25713;-35.352;149.036;2022-12-07T10:06:37;2.13;;;0.52;;
40022;SDS011;25713;-35.352;149.036;2022-12-07T10:09:11;4.32;;;0.88;;
40022;SDS011;25713;-35.352;149.036;2022-12-07T10:12:01;2.25;;;0.50;;
40022;SDS011;25713;-35.352;149.036;2022-12-07T10:14:35;1.95;;;0.50;;
40022;SDS011;25713;-35.352;149.036;2022-12-07T10:20:13;3.35;;;0.60;;
40022;SDS011;25713;-35.352;149.036;2022-12-07T10:22:57;5.80;;;0.82;;
40022;SDS011;25713;-35.352;149.036;2022-12-07T10:25:29;6.82;;;0.88;;
40022;SDS011;25713;-35.352;149.036;2022-12-07T10:28:01;3.17;;;0.70;;
40022;SDS011;25713;-35.352;149.036;2022-12-07T10:30:48;7.28;;;0.90;;
40022;SDS011;25713;-35.352;149.036;2022-12-07T10:33:33;0.90;;;0.40;;
40022;SDS011;25713;-35.352;149.036;2022-12-07T10:36:16;2.95;;;0.60;;
40022;SDS011;25713;-35.352;149.036;2022-12-07T10:38:51;3.58;;;0.60;;
40022;SDS011;25713;-35.352;149.036;2022-12-07T10:41:25;1.90;;;0.65;;
40022;SDS011;25713;-35.352;149.036;2022-12-07T10:43:55;2.60;;;0.70;;
40022;SDS011;25713;-35.352;149.036;2022-12-07T10:46:45;4.72;;;0.85;;
40022;SDS011;25713;-35.352;149.036;2022-12-07T10:49:34;2.75;;;0.50;;
40022;SDS011;25713;-35.352;149.036;2022-12-07T10:52:28;3.25;;;0.60;;
40022;SDS011;25713;-35.352;149.036;2022-12-07T10:55:13;1.83;;;0.50;;
40022;SDS011;25713;-35.352;149.036;2022-12-07T10:58:01;1.17;;;0.60;;
40022;SDS011;25713;-35.352;149.036;2022-12-07T11:00:44;1.23;;;0.60;;
40022;SDS011;25713;-35.352;149.036;2022-12-07T11:03:27;1.90;;;0.85;;
40022;SDS011;25713;-35.352;149.036;2022-12-07T11:06:06;1.38;;;0.45;;
40022;SDS011;25713;-35.352;149.036;2022-12-07T11:08:56;3.13;;;0.70;;
40022;SDS011;25713;-35.352;149.036;2022-12-07T11:11:33;4.18;;;0.60;;
40022;SDS011;25713;-35.352;149.036;2022-12-07T11:14:10;3.15;;;0.60;;
40022;SDS011;25713;-35.352;149.036;2022-12-07T11:16:51;3.17;;;0.90;;
40022;SDS011;25713;-35.352;149.036;2022-12-07T11:19:39;5.35;;;0.80;;
40022;SDS011;25713;-35.352;149.036;2022-12-07T11:22:18;5.05;;;0.80;;
40022;SDS011;25713;-35.352;149.036;2022-12-07T11:24:55;3.60;;;1.02;;
40022;SDS011;25713;-35.352;149.036;2022-12-07T11:27:32;2.00;;;0.60;;
40022;SDS011;25713;-35.352;149.036;2022-12-07T11:30:11;2.20;;;0.60;;
40022;SDS011;25713;-35.352;149.036;2022-12-07T11:32:45;7.05;;;1.17;;
40022;SDS011;25713;-35.352;149.036;2022-12-07T11:35:41;2.05;;;0.70;;
40022;SDS011;25713;-35.352;149.036;2022-12-07T11:38:22;7.18;;;1.30;;
40022;SDS011;25713;-35.352;149.036;2022-12-07T11:40:56;4.47;;;1.40;;
40022;SDS011;25713;-35.352;149.036;2022-12-07T11:43:29;4.38;;;1.08;;
40022;SDS011;25713;-35.352;149.036;2022-12-07T11:46:03;4.95;;;1.50;;
40022;SDS011;25713;-35.352;149.036;2022-12-07T11:48:37;5.30;;;1.23;;
40022;SDS011;25713;-35.352;149.036;2022-12-07T11:51:11;7.32;;;1.80;;
40022;SDS011;25713;-35.352;149.036;2022-12-07T11:53:43;8.00;;;1.55;;
40022;SDS011;25713;-35.352;149.036;2022-12-07T11:56:17;7.30;;;1.55;;
40022;SDS011;25713;-35.352;149.036;2022-12-07T11:58:51;7.55;;;1.85;;
40022;SDS011;25713;-35.352;149.036;2022-12-07T12:01:41;6.10;;;1.90;;
40022;SDS011;25713;-35.352;149.036;2022-12-07T12:04:19;6.38;;;1.58;;
40022;SDS011;25713;-35.352;149.036;2022-12-07T12:09:30;2.85;;;1.17;;
40022;SDS011;25713;-35.352;149.036;2022-12-07T12:12:09;3.80;;;1.00;;
40022;SDS011;25713;-35.352;149.036;2022-12-07T12:15:16;5.35;;;1.00;;
40022;SDS011;25713;-35.352;149.036;2022-12-07T12:20:56;3.92;;;1.08;;
40022;SDS011;25713;-35.352;149.036;2022-12-07T12:23:34;4.40;;;1.25;;
40022;SDS011;25713;-35.352;149.036;2022-12-07T12:26:08;7.63;;;1.05;;
40022;SDS011;25713;-35.352;149.036;2022-12-07T12:28:50;3.90;;;1.00;;
40022;SDS011;25713;-35.352;149.036;2022-12-07T12:31:34;3.30;;;1.00;;
40022;SDS011;25713;-35.352;149.036;2022-12-07T12:34:29;2.47;;;0.88;;
40022;SDS011;25713;-35.352;149.036;2022-12-07T12:37:14;4.53;;;0.88;;
40022;SDS011;25713;-35.352;149.036;2022-12-07T12:46:38;4.57;;;0.90;;
40022;SDS011;25713;-35.352;149.036;2022-12-07T12:49:30;3.42;;;0.95;;
40022;SDS011;25713;-35.352;149.036;2022-12-07T12:55:15;3.80;;;0.88;;
40022;SDS011;25713;-35.352;149.036;2022-12-07T13:07:10;2.30;;;0.65;;
40022;SDS011;25713;-35.352;149.036;2022-12-07T13:10:01;2.40;;;0.75;;
40022;SDS011;25713;-35.352;149.036;2022-12-07T13:12:31;2.15;;;0.70;;
40022;SDS011;25713;-35.352;149.036;2022-12-07T13:15:01;2.90;;;1.10;;
40022;SDS011;25713;-35.352;149.036;2022-12-07T13:23:29;2.20;;;0.77;;
40022;SDS011;25713;-35.352;149.036;2022-12-07T13:26:17;8.13;;;1.10;;
40022;SDS011;25713;-35.352;149.036;2022-12-07T13:28:48;2.30;;;0.70;;
40022;SDS011;25713;-35.352;149.036;2022-12-07T13:31:31;1.65;;;0.75;;
40022;SDS011;25713;-35.352;149.036;2022-12-07T13:34:02;3.03;;;0.80;;
40022;SDS011;25713;-35.352;149.036;2022-12-07T13:36:37;2.30;;;0.98;;
40022;SDS011;25713;-35.352;149.036;2022-12-07T13:39:18;1.02;;;0.70;;
40022;SDS011;25713;-35.352;149.036;2022-12-07T13:41:52;1.93;;;0.80;;
40022;SDS011;25713;-35.352;149.036;2022-12-07T13:44:23;2.60;;;0.98;;
40022;SDS011;25713;-35.352;149.036;2022-12-07T13:46:54;2.50;;;1.02;;
40022;SDS011;25713;-35.352;149.036;2022-12-07T13:49:32;1.80;;;0.90;;
40022;SDS011;25713;-35.352;149.036;2022-12-07T13:52:13;1.58;;;0.80;;
40022;SDS011;25713;-35.352;149.036;2022-12-07T13:54:45;1.95;;;1.00;;
40022;SDS011;25713;-35.352;149.036;2022-12-07T13:57:15;2.85;;;1.00;;
40022;SDS011;25713;-35.352;149.036;2022-12-07T13:59:45;1.70;;;0.88;;
40022;SDS011;25713;-35.352;149.036;2022-12-07T14:02:19;2.53;;;0.80;;
40022;SDS011;25713;-35.352;149.036;2022-12-07T14:04:50;6.38;;;1.10;;
40022;SDS011;25713;-35.352;149.036;2022-12-07T14:07:47;4.95;;;1.05;;
40022;SDS011;25713;-35.352;149.036;2022-12-07T14:10:24;2.58;;;1.15;;
40022;SDS011;25713;-35.352;149.036;2022-12-07T14:12:55;3.08;;;0.90;;
40022;SDS011;25713;-35.352;149.036;2022-12-07T14:15:26;5.35;;;0.95;;
40022;SDS011;25713;-35.352;149.036;2022-12-07T14:17:57;2.05;;;0.95;;
40022;SDS011;25713;-35.352;149.036;2022-12-07T14:20:31;2.70;;;0.82;;
40022;SDS011;25713;-35.352;149.036;2022-12-07T14:23:04;2.85;;;1.00;;
40022;SDS011;25713;-35.352;149.036;2022-12-07T14:25:50;4.88;;;1.00;;
40022;SDS011;25713;-35.352;149.036;2022-12-07T14:28:27;2.33;;;1.00;;
40022;SDS011;25713;-35.352;149.036;2022-12-07T14:30:58;1.35;;;0.80;;
40022;SDS011;25713;-35.352;149.036;2022-12-07T14:33:27;3.15;;;0.80;;
40022;SDS011;25713;-35.352;149.036;2022-12-07T14:35:57;2.33;;;0.80;;
40022;SDS011;25713;-35.352;149.036;2022-12-07T14:38:29;3.75;;;1.00;;
40022;SDS011;25713;-35.352;149.036;2022-12-07T14:40:59;4.38;;;0.90;;
40022;SDS011;25713;-35.352;149.036;2022-12-07T14:43:29;1.73;;;0.90;;
40022;SDS011;25713;-35.352;149.036;2022-12-07T14:45:58;5.88;;;1.05;;
40022;SDS011;25713;-35.352;149.036;2022-12-07T14:48:27;3.08;;;0.90;;
40022;SDS011;25713;-35.352;149.036;2022-12-07T15:53:35;2.95;;;0.98;;
40022;SDS011;25713;-35.352;149.036;2022-12-07T15:56:05;4.70;;;1.10;;
40022;SDS011;25713;-35.352;149.036;2022-12-07T15:58:35;4.13;;;1.10;;
40022;SDS011;25713;-35.352;149.036;2022-12-07T16:01:10;1.15;;;0.88;;
40022;SDS011;25713;-35.352;149.036;2022-12-07T16:03:40;2.97;;;1.27;;
40022;SDS011;25713;-35.352;149.036;2022-12-07T16:06:09;4.03;;;1.30;;
40022;SDS011;25713;-35.352;149.036;2022-12-07T16:08:44;3.85;;;1.13;;
40022;SDS011;25713;-35.352;149.036;2022-12-07T16:11:14;2.42;;;0.90;;
40022;SDS011;25713;-35.352;149.036;2022-12-07T16:13:43;1.13;;;0.90;;
40022;SDS011;25713;-35.352;149.036;2022-12-07T16:16:13;5.90;;;1.42;;
40022;SDS011;25713;-35.352;149.036;2022-12-07T16:18:44;4.68;;;0.90;;
40022;SDS011;25713;-35.352;149.036;2022-12-07T16:21:14;2.10;;;1.13;;
40022;SDS011;25713;-35.352;149.036;2022-12-07T16:23:46;1.35;;;0.85;;
40022;SDS011;25713;-35.352;149.036;2022-12-07T16:26:16;1.60;;;0.90;;
40022;SDS011;25713;-35.352;149.036;2022-12-07T16:28:48;3.33;;;1.00;;
40022;SDS011;25713;-35.352;149.036;2022-12-07T16:31:18;3.47;;;0.80;;